x

Ne Burgeo Bank (44255) Wave Buoy

1:00am - Mon 30th Mar 2015 All times are ADT. -3 hours from GMT.

  • Sig Wave height 7.5ft
  • Peak Period 13s
  • Wind
    16mph, 18mph gusts
  • Sea Temp 32°f
  • Air Temp 29°f
  • Sea Pressure 1017.4mb
  • Ne Burgeo Bank
  • Ne Burgeo Bank

More Historic Weather Station data

Upgrade to MSW Pro to gain access to the past 30 days of data for over 8000 Wavebouys and Weather Stations around the globe.

Join Pro

Comparision Forecast

View Surf forecast
   
Mon 03/30 1:00am 7.5ft 13s 16 18 mph 1017.4mb 32f 29f
Sun 03/29 10:00pm 8ft 13s 18 22 mph 1016.9mb 32f 29f
5:00pm 7ft 12s 22 27 mph 1011.6mb 32f 31f
4:00pm 7ft 12s 20 25 mph 1010.7mb 32f 31f
3:00pm 7.5ft 12s 25 29 mph 1009.7mb 33f 30f
12:00pm 7.5ft 13s 22 27 mph 1005.5mb 33f 31f
11:00am 8.5ft 12s 22 27 mph 1003.7mb 33f 30f
10:00am  -   -  25
mph
1001.4mb - 30f
3:00am 6.5ft 12s 22 27 mph 996.3mb 32f 32f
2:00am 7ft 13s 16 20 mph 997.8mb 33f 33f
1:00am 6ft 13s 16 20 mph 999.2mb 33f 33f
12:00am 6.5ft 12s 11 13 mph 1001.6mb 33f 32f
Sat 03/28 11:00pm 6.5ft 12s 11 13 mph 1002mb 33f 33f
10:00pm 7ft 12s 7 9 mph 1003.5mb 33f 33f
9:00pm 6.5ft 12s 7 9 mph 1003.7mb 33f 33f
8:00pm 6.5ft 12s 4 9 mph 1004.1mb 33f 35f
7:00pm 6.5ft 14s 4 7 mph 1003.8mb 33f 34f
6:00pm 6.5ft 14s 4 7 mph 1003.7mb 33f 34f
5:00pm 7ft 12s 2 4 mph 1005mb 33f 34f
4:00pm 7ft 12s 4 7 mph 1005.4mb 33f 34f
3:00pm 7ft 12s 9 11 mph 1006.4mb 33f 33f
2:00pm 7ft 12s 7 9 mph 1006.5mb 33f 33f
1:00pm 6.5ft 14s 7 9 mph 1007.6mb 33f 33f
12:00pm 7ft 12s 7 9 mph 1007.7mb 33f 34f
11:00am 6ft 12s 7 9 mph 1007.9mb 33f 34f
10:00am 6ft 12s 9 11 mph 1007.6mb 33f 34f
9:00am 7ft 12s 7 9 mph 1007.2mb 33f 34f
8:00am 6.5ft 12s 9 11 mph 1006.6mb 33f 34f
7:00am 6ft 10s 9 11 mph 1005.8mb 33f 34f
6:00am 6.5ft 12s 9 11 mph 1004.7mb 33f 34f
5:00am 6ft 11s 9 11 mph 1004.3mb 33f 33f
4:00am 6ft 11s 11 13 mph 1004.1mb 33f 33f
3:00am 6ft 10s 7 9 mph 1002.9mb 33f 33f
2:00am 6ft 11s 7 9 mph 1003.5mb 33f 33f
1:00am 6ft 10s 4
mph
1003.2mb 33f 33f
12:00am 6ft 10s 2
mph
1003.8mb 33f 33f
Fri 03/27 11:00pm 6ft 10s  -  2 mph 1003.8mb 33f 33f
10:00pm 6ft 9s  -  2 mph 1004.5mb 33f 33f
9:00pm 6ft 10s 2 4 mph 1004.5mb 33f 33f
8:00pm 6ft 10s 4 7 mph 1004.3mb 33f 34f
7:00pm 5.5ft 11s 4
mph
1003.7mb 33f 34f
6:00pm 5.5ft 10s 4
mph
1003.1mb 33f 34f
5:00pm 6ft 10s 4 7 mph 1002.9mb 33f 34f
4:00pm 6ft 10s  -  mph 1002.3mb 33f 34f
3:00pm 5.5ft 9s 2 4 mph 1002.9mb 33f 34f
2:00pm 5.5ft 8s  -  2 mph 1002.9mb 33f 34f
1:00pm 5.5ft 8s  -  2 mph 1003.5mb 33f 34f
12:00pm 4.5ft 7s 4 7 mph 1003mb 33f 33f
11:00am 4.5ft 8s 2 4 mph 1004.1mb 33f 34f
10:00am 5ft 8s 2 4 mph 1003.3mb 33f 34f
9:00am 4.5ft 7s 4
mph
1003.4mb 32f 34f
8:00am 4.5ft 7s 4
mph
1003.2mb 32f 33f
7:00am 5ft 7s 7 9 mph 1003.1mb 32f 33f
6:00am 5ft 7s 4
mph
1002.4mb 32f 33f
5:00am 4.5ft 7s 7 9 mph 1003.2mb 32f 33f
2:00am 6ft 8s 7 9 mph 1003.2mb 32f 33f
1:00am 6ft 8s 7 9 mph 1003.3mb 32f 33f
12:00am 6ft 8s 4 7 mph 1004.6mb 32f 33f
Thu 03/26 11:00pm 6ft 8s 13 16 mph 1006.7mb 32f 33f
10:00pm 6ft 7s 16 20 mph 1006.2mb 32f 34f
7:00pm 7.5ft 6s 22 27 mph 1007.7mb 32f 34f
6:00pm 8ft 7s 22 29 mph 1008.7mb 32f 34f
3:00pm 6ft 5s 31 36 mph 1011.5mb 32f 33f
12:00pm 3.5ft  -  22 27 mph 1016.7mb 32f 32f